createdAt,value
2023-06-08T00:02:33.320Z,6.30
2023-06-08T00:07:38.000Z,6.47
2023-06-08T00:12:41.158Z,5.70
2023-06-08T00:17:45.334Z,6.40
2023-06-08T00:22:48.832Z,6.23
2023-06-08T00:27:51.954Z,6.10
2023-06-08T00:32:53.715Z,5.73
2023-06-08T00:37:56.012Z,6.03
2023-06-08T00:42:59.118Z,6.53
2023-06-08T00:48:04.067Z,6.60
2023-06-08T00:53:05.909Z,6.20
2023-06-08T00:58:14.217Z,7.80
2023-06-08T01:03:16.025Z,6.60
2023-06-08T01:08:20.954Z,6.97
2023-06-08T01:13:26.427Z,6.97
2023-06-08T01:18:28.839Z,6.30
2023-06-08T01:23:38.724Z,6.43
2023-06-08T01:28:42.547Z,7.00
2023-06-08T01:33:44.248Z,7.50
2023-06-08T01:38:51.758Z,7.50
2023-06-08T01:43:57.414Z,7.20
2023-06-08T01:49:02.346Z,8.10
2023-06-08T01:54:04.847Z,8.37
2023-06-08T01:59:07.919Z,7.77
2023-06-08T02:04:09.647Z,20.33
2023-06-08T02:09:11.476Z,9.07
2023-06-08T02:14:16.030Z,8.43
2023-06-08T02:19:18.061Z,9.00
2023-06-08T02:24:20.248Z,8.07
2023-06-08T02:29:23.385Z,9.00
2023-06-08T02:34:26.085Z,8.50
2023-06-08T02:39:28.006Z,8.13
2023-06-08T02:44:31.196Z,9.23
2023-06-08T02:49:32.982Z,8.80
2023-06-08T02:54:34.815Z,8.50
2023-06-08T02:59:37.985Z,9.80
2023-06-08T03:04:44.552Z,9.20
2023-06-08T03:09:47.560Z,9.10
2023-06-08T03:14:56.004Z,8.90
2023-06-08T03:20:01.054Z,10.13
2023-06-08T03:25:07.192Z,9.10
2023-06-08T03:30:14.257Z,9.73
2023-06-08T03:35:24.035Z,9.10
2023-06-08T03:40:43.004Z,8.30
2023-06-08T03:45:46.557Z,8.50
2023-06-08T03:50:48.789Z,8.30
2023-06-08T03:55:52.111Z,7.70
2023-06-08T04:00:57.312Z,10.33
2023-06-08T04:05:59.420Z,8.63
2023-06-08T04:11:01.241Z,8.37
2023-06-08T04:16:10.566Z,8.50
2023-06-08T04:21:16.886Z,8.70
2023-06-08T04:26:19.058Z,8.70
2023-06-08T04:31:22.856Z,8.60
2023-06-08T04:36:28.036Z,7.93
2023-06-08T04:41:32.667Z,8.80
2023-06-08T04:46:40.185Z,8.60
2023-06-08T04:51:47.584Z,8.33
2023-06-08T04:56:49.400Z,8.93
2023-06-08T05:01:52.589Z,8.90
2023-06-08T05:06:54.384Z,10.63
2023-06-08T05:11:56.137Z,9.40
2023-06-08T05:16:59.247Z,8.67
2023-06-08T05:22:01.028Z,8.63
2023-06-08T05:27:02.757Z,8.47
2023-06-08T05:32:07.522Z,9.67
2023-06-08T05:37:10.581Z,9.13
2023-06-08T05:42:12.508Z,8.80
2023-06-08T05:47:15.585Z,9.00
2023-06-08T05:52:17.366Z,9.23
2023-06-08T05:57:19.638Z,8.80
2023-06-08T06:02:22.837Z,9.23
2023-06-08T06:07:24.737Z,8.73
2023-06-08T06:12:26.570Z,8.73
2023-06-08T06:17:29.943Z,9.07
2023-06-08T06:22:31.765Z,9.37
2023-06-08T06:27:39.195Z,9.87
2023-06-08T06:32:48.133Z,8.80
2023-06-08T06:37:51.913Z,9.60
2023-06-08T06:42:53.693Z,9.13
2023-06-08T06:48:08.532Z,9.23
2023-06-08T06:53:11.001Z,9.03
2023-06-08T06:58:13.588Z,9.60
2023-06-08T07:03:17.488Z,9.60
2023-06-08T07:08:19.517Z,9.77
2023-06-08T07:13:21.235Z,9.00
2023-06-08T07:18:24.327Z,10.70
2023-06-08T07:23:48.944Z,9.47
2023-06-08T07:28:48.819Z,9.23
2023-06-08T07:33:52.371Z,9.57
2023-06-08T07:38:56.133Z,9.90
2023-06-08T07:43:57.888Z,10.30
2023-06-08T07:49:01.004Z,10.70
2023-06-08T07:54:02.817Z,9.53
2023-06-08T07:59:04.499Z,9.07
2023-06-08T08:04:07.695Z,9.90
2023-06-08T08:09:09.620Z,9.47
2023-06-08T08:14:11.891Z,9.97
2023-06-08T08:19:17.021Z,10.63
2023-06-08T08:24:18.815Z,11.27
2023-06-08T08:29:20.609Z,10.57
2023-06-08T08:34:23.719Z,10.80
2023-06-08T08:39:25.716Z,11.00
2023-06-08T08:44:27.536Z,10.50
2023-06-08T08:49:33.785Z,10.33
2023-06-08T08:54:35.650Z,9.90
2023-06-08T08:59:37.681Z,9.23
2023-06-08T09:04:40.814Z,9.20
2023-06-08T09:09:42.559Z,10.07
2023-06-08T09:14:57.050Z,8.87
2023-06-08T09:20:00.849Z,8.97
2023-06-08T09:25:04.794Z,8.57
2023-06-08T09:30:22.367Z,8.70
2023-06-08T09:35:25.935Z,8.33
2023-06-08T09:40:27.657Z,8.50
2023-06-08T09:45:29.690Z,9.23
2023-06-08T09:50:32.722Z,8.13
2023-06-08T09:55:34.673Z,8.37
2023-06-08T10:00:37.497Z,7.45
2023-06-08T10:05:44.440Z,7.70
2023-06-08T10:10:46.280Z,6.40
2023-06-08T10:15:47.949Z,6.70
2023-06-08T10:20:50.947Z,7.95
2023-06-08T10:25:52.693Z,6.80
2023-06-08T10:30:54.438Z,7.88
2023-06-08T10:36:07.563Z,7.37
2023-06-08T10:41:09.316Z,8.33
2023-06-08T10:46:11.039Z,7.63
2023-06-08T10:51:14.182Z,7.90
2023-06-08T10:56:17.309Z,7.50
2023-06-08T11:01:19.547Z,7.77
2023-06-08T11:06:22.665Z,7.70
2023-06-08T11:11:24.361Z,7.30
2023-06-08T11:16:26.096Z,6.90
2023-06-08T11:21:29.701Z,8.73
2023-06-08T11:26:31.477Z,6.60
2023-06-08T11:31:33.581Z,6.90
2023-06-08T11:36:39.948Z,6.83
2023-06-08T11:41:41.665Z,8.20
2023-06-08T11:46:43.647Z,6.47
2023-06-08T11:51:48.297Z,5.80
2023-06-08T11:56:50.073Z,5.87
2023-06-08T12:01:55.772Z,6.00
2023-06-08T12:06:59.260Z,5.67
2023-06-08T12:12:09.845Z,6.30
2023-06-08T12:17:16.114Z,6.30
2023-06-08T12:22:19.326Z,6.53
2023-06-08T12:27:21.102Z,6.13
2023-06-08T12:32:24.303Z,6.53
2023-06-08T12:37:27.503Z,6.70
2023-06-08T12:42:29.234Z,6.60
2023-06-08T12:47:31.096Z,6.00
2023-06-08T12:52:34.585Z,6.23
2023-06-08T12:57:37.742Z,5.77
2023-06-08T13:02:39.663Z,5.83
2023-06-08T13:07:42.830Z,6.17
2023-06-08T13:12:44.802Z,6.23
2023-06-08T13:17:47.081Z,5.67
2023-06-08T13:22:50.328Z,5.20
2023-06-08T13:27:52.887Z,5.33
2023-06-08T13:32:54.694Z,5.30
2023-06-08T13:37:58.216Z,6.00
2023-06-08T13:43:00.796Z,4.60
2023-06-08T13:48:03.003Z,5.07
2023-06-08T13:53:06.082Z,5.30
2023-06-08T13:58:07.828Z,4.53
2023-06-08T14:03:09.696Z,5.30
2023-06-08T14:08:12.819Z,5.10
2023-06-08T14:13:14.560Z,4.60
2023-06-08T14:18:16.309Z,4.67
2023-06-08T14:23:20.594Z,4.23
2023-06-08T14:28:22.301Z,6.47
2023-06-08T14:33:23.989Z,6.50
2023-06-08T14:38:27.169Z,6.10
2023-06-08T14:43:28.914Z,4.93
2023-06-08T14:48:30.865Z,5.30
2023-06-08T14:53:33.984Z,5.37
2023-06-08T14:58:35.736Z,4.93
2023-06-08T15:03:37.481Z,5.17
2023-06-08T15:08:40.565Z,5.40
2023-06-08T15:13:43.307Z,5.33
2023-06-08T15:18:45.171Z,5.00
2023-06-08T15:23:48.542Z,4.87
2023-06-08T15:28:50.260Z,5.60
2023-06-08T15:33:53.688Z,5.27
2023-06-08T15:38:56.757Z,5.53
2023-06-08T15:43:58.599Z,5.80
2023-06-08T15:49:00.333Z,6.10
2023-06-08T15:54:03.582Z,5.13
2023-06-08T15:59:05.344Z,5.07
2023-06-08T16:04:07.188Z,4.90
2023-06-08T16:09:10.608Z,5.67
2023-06-08T16:14:12.341Z,5.13
2023-06-08T16:19:14.419Z,5.13
2023-06-08T16:24:26.496Z,5.83
2023-06-08T16:29:28.573Z,5.80
2023-06-08T16:34:30.259Z,6.37
2023-06-08T16:39:33.301Z,6.37
2023-06-08T16:44:35.007Z,6.70
2023-06-08T16:49:36.732Z,6.73
2023-06-08T16:54:39.827Z,8.17
2023-06-08T16:59:41.717Z,7.57
2023-06-08T17:04:43.509Z,7.43
2023-06-08T17:09:46.768Z,7.00
2023-06-08T17:14:48.494Z,6.80
2023-06-08T17:19:50.326Z,7.17
2023-06-08T17:24:57.396Z,7.23
2023-06-08T17:30:00.204Z,6.73
2023-06-08T17:35:02.379Z,7.47
2023-06-08T17:40:07.196Z,7.63
2023-06-08T17:45:09.696Z,7.30
2023-06-08T17:50:11.579Z,8.33
2023-06-08T17:55:14.928Z,7.83
2023-06-08T18:00:17.364Z,7.90
2023-06-08T18:05:19.153Z,8.57
2023-06-08T18:10:22.292Z,8.10
2023-06-08T18:15:24.023Z,8.00
2023-06-08T18:20:25.767Z,8.83
2023-06-08T18:25:28.940Z,9.07
2023-06-08T18:30:31.022Z,9.43
2023-06-08T18:35:32.797Z,8.50
2023-06-08T18:40:35.882Z,8.80
2023-06-08T18:45:37.605Z,8.80
2023-06-08T18:50:39.364Z,9.70
2023-06-08T18:55:42.419Z,10.37
2023-06-08T19:00:44.210Z,9.93
2023-06-08T19:05:46.507Z,10.00
2023-06-08T19:10:50.094Z,10.20
2023-06-08T19:15:51.881Z,11.27
2023-06-08T19:20:53.628Z,11.43
2023-06-08T19:25:56.936Z,12.33
2023-06-08T19:30:58.730Z,11.27
2023-06-08T19:36:00.499Z,11.17
2023-06-08T19:41:03.630Z,11.20
2023-06-08T19:46:05.831Z,12.07
2023-06-08T19:51:07.688Z,14.30
2023-06-08T19:56:10.834Z,12.40
2023-06-08T20:01:12.712Z,11.60
2023-06-08T20:06:15.074Z,12.03
2023-06-08T20:11:18.234Z,12.50
2023-06-08T20:16:20.033Z,11.40
2023-06-08T20:21:22.477Z,10.70
2023-06-08T20:26:27.187Z,9.20
2023-06-08T20:31:29.301Z,8.50
2023-06-08T20:36:31.033Z,8.20
2023-06-08T20:41:34.104Z,7.40
2023-06-08T20:46:36.896Z,7.13
2023-06-08T20:51:38.704Z,7.80
2023-06-08T20:56:41.944Z,6.80
2023-06-08T21:01:43.803Z,7.27
2023-06-08T21:06:45.644Z,6.90
2023-06-08T21:11:52.397Z,8.60
2023-06-08T21:16:55.030Z,8.07
2023-06-08T21:21:56.780Z,7.70
2023-06-08T21:27:00.661Z,7.90
2023-06-08T21:32:02.562Z,8.00
2023-06-08T21:37:04.703Z,8.93
2023-06-08T21:42:08.995Z,8.77
2023-06-08T21:47:10.741Z,9.40
2023-06-08T21:52:12.620Z,9.20
2023-06-08T21:57:15.719Z,10.37
2023-06-08T22:02:17.607Z,9.90
2023-06-08T22:07:19.586Z,11.30
2023-06-08T22:12:23.238Z,12.23
2023-06-08T22:17:25.237Z,13.07
2023-06-08T22:22:27.011Z,12.93
2023-06-08T22:27:33.123Z,13.40
2023-06-08T22:32:36.147Z,14.20
2023-06-08T22:37:38.051Z,13.90
2023-06-08T22:42:41.198Z,15.57
2023-06-08T22:47:43.186Z,15.10
2023-06-08T22:52:46.517Z,14.60
2023-06-08T22:57:49.621Z,15.80
2023-06-08T23:02:51.393Z,15.50
2023-06-08T23:07:53.148Z,14.93
2023-06-08T23:12:57.381Z,14.63
2023-06-08T23:17:59.168Z,13.90
2023-06-08T23:23:00.965Z,15.30
2023-06-08T23:28:04.571Z,14.83
2023-06-08T23:33:06.411Z,15.83
2023-06-08T23:38:08.560Z,16.37
2023-06-08T23:43:12.132Z,16.63
2023-06-08T23:48:13.960Z,16.33
2023-06-08T23:53:17.549Z,16.63
2023-06-08T23:58:20.862Z,15.70
